Latest Coastal Weather Observations for Cape Nelson

IDV60701

Issued at 12:02 am EST Sunday 26 June 2022 (issued every 10 minutes, with the page automatically refreshed every 10 minutes)

About coastal observations | Map of coastal stations | Coastal observations for VIC | Marine services | Other Formats
Station Details ID: 090184 Name: CAPE NELSON LIGHTHOUSE Lat: -38.43 Lon: 141.54 Height: 45.4 m
Data from the previous 72 hours. | See also: Recent months at Cape Nelson
Date/Time
EST
Wind Sea
Height
m
Swell Vis
km
Cloud Weather Temp
°C
Press
MSL
hPa
Rain since
9am
mm
Dir  Spd
kts
Gust
kts
Height
m
Period
s
Dir
26/12:00am WNW 18 24 - - - - - - - 13.5 1018.6 1.2
 
Date/Time
EST
Wind Sea
Height
m
Swell Vis
km
Cloud Weather Temp
°C
Press
MSL
hPa
Rain since
9am
mm
Dir  Spd
kts
Gust
kts
Height
m
Period
s
Dir
25/11:30pm W 21 29 - - - - - - - 13.7 1018.4 1.2
25/11:00pm W 15 29 - - - - - - - 13.7 1018.3 1.2
25/10:39pm WNW 15 27 - - - - - - - 12.6 1018.4 1.2
25/10:30pm WNW 16 22 - - - - - - - 12.7 1018.4 1.2
25/10:00pm NW 18 28 - - - - - - - 12.4 1018.1 1.2
25/09:54pm NW 18 28 - - - - - - - 12.3 1018.0 1.2
25/09:30pm NW 16 23 - - - - - - - 12.2 1018.1 1.2
25/09:00pm NW 16 24 - - - - - - Recent precip. 12.2 1017.8 1.2
25/08:30pm NW 16 24 - - - - - - - 11.9 1017.6 1.2
25/08:02pm NW 17 27 - - - - - - - 12.0 1017.3 1.0
25/08:00pm NW 16 25 - - - - - - - 11.9 1017.3 1.0
25/07:30pm NW 15 21 - - - - - - - 12.1 1017.3 1.0
25/07:00pm NW 15 21 - - - - - - - 12.3 1017.2 0.8
25/06:30pm NW 16 22 - - - - - - - 12.5 1016.8 0.8
25/06:07pm WNW 17 27 - - - - - - - 12.9 1016.6 0.8
25/06:00pm WNW 17 26 - - - - - - Recent precip. 12.6 1016.6 0.8
25/05:30pm NW 17 22 - - - - - - - 13.0 1016.2 0.4
25/05:01pm NW 16 28 - - - - - - - 13.2 1016.1 0.4
25/05:00pm NW 16 24 - - - - - - - 13.2 1016.2 0.4
25/04:39pm NW 17 27 - - - - - - - 13.7 1016.1 0.4
25/04:30pm NW 18 25 - - - - - - - 14.0 1016.0 0.4
25/04:14pm NW 17 27 - - - - - - - 14.2 1016.0 0.4
25/04:00pm WNW 19 26 - - - - - - - 14.3 1016.0 0.4
25/03:30pm WNW 19 26 - - - - - - - 14.6 1016.0 0.4
25/03:03pm WNW 22 32 - - - - - - - 14.8 1016.0 0.4
25/03:00pm WNW 21 27 - - - - - - - 14.8 1016.0 0.4
25/02:30pm WNW 21 28 - - - - - - - 14.9 1016.0 0.4
25/02:19pm WNW 18 28 - - - - - - - 14.9 1016.1 0.4
25/02:00pm WNW 17 25 - - - - - - - 14.6 1016.4 0.4
25/01:30pm WNW 20 29 - - - - - - - 14.6 1016.5 0.4
25/01:00pm NW 18 32 - - - - - - - 13.3 1017.0 0.4
25/12:48pm NW 19 29 - - - - - - - 13.2 1016.9 0.4
25/12:30pm NW 17 26 - - - - - - - 13.6 1017.0 0.4
25/12:00pm NW 18 25 - - - - - - - 13.8 1017.0 0.4
25/11:30am NW 18 24 - - - - - - - 13.3 1017.3 0.4
25/11:00am NW 16 23 - - - - - - - 12.8 1017.5 0.4
25/10:30am NW 16 25 - - - - - - - 11.8 1017.4 0.4
25/10:00am NW 16 22 - - - - - - - 11.7 1017.3 0.2
25/09:30am NW 18 27 - - - - - - - 11.6 1016.6 0.0
25/09:27am NW 17 27 - - - - - - - 11.5 1016.6 0.0
25/09:00am NNW 12 18 - - - - - - - 10.7 1016.7 3.4
25/08:30am NW 14 18 - - - - - - - 10.6 1016.3 3.4
25/08:00am NW 15 21 - - - - - - - 10.6 1016.1 3.4
25/07:30am NW 17 24 - - - - - - - 10.5 1015.9 3.4
25/07:00am NW 17 22 - - - - - - - 10.7 1015.7 3.4
25/06:30am NW 14 20 - - - - - - - 10.3 1015.5 3.4
25/06:00am NW 16 21 - - - - - - Rain 10.8 1015.6 3.4
25/05:30am NW 15 21 - - - - - - - 10.7 1015.1 2.8
25/05:00am NW 16 21 - - - - - - - 10.4 1015.1 2.8
25/04:30am NW 15 21 - - - - - - - 10.3 1015.0 2.8
25/04:00am NW 15 20 - - - - - - - 10.3 1014.9 2.8
25/03:30am NW 16 23 - - - - - - - 10.3 1014.9 2.8
25/03:00am NW 14 21 - - - - - - Rain 10.6 1015.1 2.6
25/02:30am NW 15 23 - - - - - - - 10.6 1015.3 2.2
25/02:00am NW 16 23 - - - - - - - 10.3 1015.1 1.6
25/01:30am NW 13 18 - - - - - - - 10.2 1015.1 1.6
25/01:00am NW 14 20 - - - - - - - 10.3 1015.5 1.6
25/12:30am NNW 12 17 - - - - - - - 9.8 1015.5 1.4
25/12:00am NNW 13 18 - - - - - - Recent precip. 9.9 1015.7 1.4
 
Date/Time
EST
Wind Sea
Height
m
Swell Vis
km
Cloud Weather Temp
°C
Press
MSL
hPa
Rain since
9am
mm
Dir  Spd
kts
Gust
kts
Height
m
Period
s
Dir
24/11:30pm NNW 15 22 - - - - - - - 10.0 1015.7 1.2
24/11:00pm NNW 13 20 - - - - - - - 10.0 1015.6 1.2
24/10:30pm NNW 13 19 - - - - - - - 10.2 1015.8 1.2
24/10:00pm NNW 13 19 - - - - - - - 10.3 1016.0 1.2
24/09:30pm NNW 11 16 - - - - - - - 10.6 1016.0 1.2
24/09:00pm NNW 11 16 - - - - - - - 10.3 1016.0 1.2
24/08:30pm NNW 9 12 - - - - - - - 11.0 1016.1 1.2
24/08:00pm WNW 11 17 - - - - - - - 12.4 1016.1 1.2
24/07:30pm NW 10 19 - - - - - - - 11.3 1016.1 1.2
24/07:00pm NW 12 20 - - - - - - - 11.4 1015.8 1.2
24/06:30pm WNW 15 20 - - - - - - - 12.5 1015.6 1.2
24/06:00pm W 14 20 - - - - - - - 13.3 1015.2 1.2
24/05:30pm WNW 13 21 - - - - - - - 13.0 1015.1 1.2
24/05:00pm W 13 19 - - - - - - - 13.2 1015.0 1.2
24/04:30pm W 11 19 - - - - - - - 13.1 1014.9 1.2
24/04:00pm W 16 21 - - - - - - - 13.0 1014.8 1.2
24/03:30pm W 13 21 - - - - - - - 13.3 1014.8 1.2
24/03:00pm W 15 21 - - - - - - - 13.0 1014.6 1.2
24/02:30pm W 16 22 - - - - - - - 13.3 1014.5 1.2
24/02:00pm W 16 22 - - - - - - - 13.4 1014.5 1.2
24/01:30pm W 17 23 - - - - - - - 13.3 1014.6 1.2
24/01:00pm W 17 24 - - - - - - - 13.3 1014.8 1.2
24/12:30pm W 17 25 - - - - - - - 13.6 1014.9 1.2
24/12:00pm W 21 26 - - - - - - - 13.3 1015.1 1.2
24/11:30am W 18 22 - - - - - - - 13.0 1015.3 1.2
24/11:00am W 19 25 - - - - - - - 12.6 1015.2 1.2
24/10:35am W 18 29 - - - - - - - 13.5 1014.9 0.0
24/10:30am W 14 20 - - - - - - - 13.7 1014.9 0.0
24/10:12am W 16 26 - - - - - - - 12.7 1014.9 0.0
24/10:00am W 18 26 - - - - - - - 12.5 1014.8 0.0
24/09:47am W 19 33 - - - - - - - 13.5 1014.5 0.0
24/09:30am W 20 28 - - - - - - - 13.5 1014.4 0.0
24/09:00am W 18 25 - - - - - - - 13.2 1014.2 14.8
24/08:38am W 15 26 - - - - - - - 13.0 1014.0 14.8
24/08:30am W 14 21 - - - - - - - 12.7 1014.0 14.8
24/08:21am W 18 28 - - - - - - - 12.7 1013.9 14.8
24/08:00am W 21 28 - - - - - - - 13.4 1013.6 14.8
24/07:32am W 19 30 - - - - - - - 13.2 1013.2 14.8
24/07:30am W 19 27 - - - - - - - 13.2 1013.0 14.8
24/07:00am W 23 33 - - - - - - - 13.4 1012.8 14.8
24/06:46am W 19 31 - - - - - - - 13.2 1012.7 14.8
24/06:30am W 21 30 - - - - - - - 13.3 1012.4 14.6
24/06:22am W 18 28 - - - - - - - 13.0 1012.4 14.6
24/06:00am W 23 30 - - - - - - - 13.7 1011.9 14.6
24/05:30am W 23 34 - - - - - - - 13.4 1011.6 14.6
24/05:06am W 21 31 - - - - - - - 13.3 1011.4 14.6
24/05:00am W 23 31 - - - - - - - 12.9 1011.4 14.6
24/04:30am W 25 35 - - - - - - - 12.4 1011.3 14.2
24/04:19am W 19 37 - - - - - - - 13.1 1010.9 14.0
24/04:00am W 17 27 - - - - - - - 13.7 1010.9 14.0
24/03:30am W 15 25 - - - - - - - 12.6 1011.0 14.0
24/03:04am W 20 31 - - - - - - - 13.0 1010.9 13.8
24/03:00am W 20 28 - - - - - - Recent precip. 13.0 1010.8 13.8
24/02:53am WNW 15 26 - - - - - - - 12.7 1010.7 13.8
24/02:30am NW 15 21 - - - - - - - 12.2 1010.9 13.8
24/02:00am NW 15 22 - - - - - - - 12.0 1010.8 13.6
24/01:30am NW 13 18 - - - - - - - 12.1 1010.6 12.8
24/01:00am CALM 0 0 - - - - - - - 12.2 1010.7 12.6
24/12:30am NW 10 14 - - - - - - - 11.8 1010.9 12.6
24/12:00am NW 8 12 - - - - - - Recent precip. 11.5 1011.1 12.6
 
Date/Time
EST
Wind Sea
Height
m
Swell Vis
km
Cloud Weather Temp
°C
Press
MSL
hPa
Rain since
9am
mm
Dir  Spd
kts
Gust
kts
Height
m
Period
s
Dir
23/11:30pm NW 7 11 - - - - - - - 11.5 1011.2 12.2
23/11:00pm W 9 13 - - - - - - - 11.6 1012.0 9.6
23/10:30pm W 12 19 - - - - - - - 11.9 1011.9 6.4
23/10:01pm W 23 33 - - - - - - - 12.3 1011.9 1.2
23/10:00pm W 23 33 - - - - - - - 12.5 1012.0 1.0
23/09:54pm WNW 22 33 - - - - - - - 13.8 1011.9 0.0
23/09:34pm NW 22 33 - - - - - - - 14.6 1010.8 0.0
23/09:30pm NW 20 29 - - - - - - - 14.5 1010.7 0.0
23/09:07pm NW 19 29 - - - - - - - 14.5 1010.5 0.0
23/09:00pm NNW 18 26 - - - - - - - 14.3 1010.4 0.0
23/08:39pm NNW 17 29 - - - - - - - 14.1 1010.5 0.0
23/08:30pm NNW 17 23 - - - - - - - 14.1 1010.7 0.0
23/08:15pm NNW 17 28 - - - - - - - 14.1 1010.8 0.0
23/08:00pm NW 16 25 - - - - - - - 14.1 1011.1 0.0
23/07:30pm NNW 17 25 - - - - - - - 14.2 1011.3 0.0
23/07:00pm NNW 15 21 - - - - - - - 14.3 1011.6 0.0
23/06:30pm NNW 16 23 - - - - - - - 14.8 1011.7 0.0
23/06:00pm NW 15 23 - - - - - - - 15.2 1012.1 0.0
23/05:30pm NW 16 22 - - - - - - - 15.2 1012.4 0.0
23/05:00pm NW 15 25 - - - - - - - 15.3 1012.6 0.0
23/04:30pm NW 18 28 - - - - - - - 15.6 1012.8 0.0
23/04:10pm NW 18 28 - - - - - - - 15.9 1012.9 0.0
23/04:00pm NW 19 25 - - - - - - - 16.0 1012.9 0.0
23/03:30pm NW 20 31 - - - - - - - 16.1 1013.1 0.0
23/03:01pm NW 19 29 - - - - - - - 15.9 1013.0 0.0
23/03:00pm NW 20 29 - - - - - - - 15.9 1013.0 0.0
23/02:35pm NW 19 29 - - - - - - - 15.9 1013.3 0.0
23/02:30pm NW 20 28 - - - - - - - 15.9 1013.4 0.0
23/02:00pm NW 19 27 - - - - - - - 15.8 1013.7 0.0
23/01:30pm NW 19 29 - - - - - - - 15.9 1014.0 0.0
23/01:07pm NW 18 28 - - - - - - - 15.9 1014.5 0.0
23/01:00pm NW 19 28 - - - - - - - 15.6 1014.7 0.0
23/12:36pm NW 17 27 - - - - - - - 15.1 1015.3 0.0
23/12:30pm NW 18 26 - - - - - - - 15.1 1015.5 0.0
23/12:12pm NW 18 28 - - - - - - - 15.0 1015.7 0.0
23/12:00pm NW 18 27 - - - - - - - 14.9 1016.1 0.0
23/11:30am NW 20 33 - - - - - - - 14.8 1016.4 0.0
23/11:00am NW 16 27 - - - - - - - 14.2 1017.0 0.0
23/10:58am NW 16 27 - - - - - - - 14.1 1017.0 0.0
23/10:30am NNW 17 25 - - - - - - - 13.7 1017.2 0.0
23/10:02am NNW 18 28 - - - - - - - 13.5 1017.2 0.0
23/10:00am NNW 17 24 - - - - - - - 13.5 1017.2 0.0
23/09:30am NNW 15 27 - - - - - - - 13.3 1017.6 0.0
23/09:00am NW 16 27 - - - - - - - 13.0 1017.8 0.8
23/08:57am NW 16 27 - - - - - - - 12.9 1017.8 0.8
23/08:30am NNW 16 23 - - - - - - - 12.7 1018.1 0.8
23/08:00am NNW 15 22 - - - - - - - 12.5 1018.2 0.8
23/07:30am NNW 15 22 - - - - - - - 12.7 1018.3 0.8
23/07:00am NNW 16 22 - - - - - - - 12.9 1018.1 0.8
23/06:30am NNW 14 20 - - - - - - - 13.0 1018.1 0.8
23/06:00am NW 16 26 - - - - - - - 13.1 1018.2 0.8
23/05:59am NW 16 26 - - - - - - - 13.1 1018.2 0.8
23/05:30am NNW 13 19 - - - - - - - 12.9 1018.4 0.8
23/05:00am NW 16 24 - - - - - - - 12.9 1018.5 0.8
23/04:32am NW 15 25 - - - - - - - 12.6 1018.5 0.8
23/04:30am NW 15 24 - - - - - - - 12.6 1018.6 0.8
23/04:00am NW 11 17 - - - - - - - 12.0 1018.8 0.8
23/03:30am NW 11 16 - - - - - - - 12.2 1018.9 0.8
23/03:00am NW 13 21 - - - - - - - 12.5 1019.2 0.8
23/02:30am NW 14 22 - - - - - - - 12.4 1019.6 0.8
23/02:00am NW 13 18 - - - - - - - 12.6 1019.6 0.8
23/01:30am NW 16 23 - - - - - - - 12.7 1020.1 0.8
23/01:00am NW 13 19 - - - - - - - 12.5 1020.4 0.8
23/12:30am NW 9 15 - - - - - - - 12.2 1020.8 0.8

Other formats

Comma delimited format used in spreadsheet applications
http://www.bom.gov.au/fwo/IDV60701/IDV60701.94826.axf

JavaScript Object Notation format (JSON) in row-major order
http://www.bom.gov.au/fwo/IDV60701/IDV60701.94826.json

Data quality

Most of these data are generated automatically and are frequently updated. Quality checks on data are not normally performed. It is possible for incorrect values to appear. Refer to information at About Latest Weather Observations and please check the disclaimer before using these data.